Gogama, Canada
Current Conditions -  °F | °C
As of 1:00 PM on Wednesday 26 Nov 2014 (Local Time) from CYTS Reporting Station
Light Snow Light Snow  
Wind Chill: 18°   Ceiling: 2500
Heat Index: 18°   Visibility: 2mi
Dew Point: 14°   Wind: 3mph
Humidity: 86%   Direction: 70°ENE
Pressure: 30.18"   Gusts: NA
Location:  47.67°N, 81.72°W
Report Text: CYTS 261800Z 07003KT 2SM -SN OVC025 M08/M10 A3018 RMK NS8 VIS VRB 1 1/2 - 2 1/2 /S01/ SLP245
Loading
Personal Weather Stations






























Interactive Weather Map New forecast layout! Learn more

10-Day Weather Forecast

Advertisements
Track Severe Weather on mobile